Time;durP1;ratioP1;P1;durP2;ratioP2;P2;SDS_P1;SDS_P2;PMS_P1;PMS_P2;Temp;Humidity;BMP_temperature;BMP_pressure;BME280_temperature;BME280_humidity;BME280_pressure;Samples;Min_cycle;Max_cycle;Signal;HPM_P1;HPM_P2
2021/10/17 00:00:15;;;;;;;44.88;26.20;;;;;;;;;;4973147;28;20035;-67
2021/10/17 00:02:41;;;;;;;49.22;27.33;;;;;;;;;;4973024;28;20035;-67
2021/10/17 00:05:07;;;;;;;45.58;26.73;;;;;;;;;;4973217;28;20062;-68
2021/10/17 00:07:34;;;;;;;48.50;26.60;;;;;;;;;;4973150;28;20502;-69
2021/10/17 00:10:00;;;;;;;45.20;25.77;;;;;;;;;;4973127;28;20090;-68
2021/10/17 00:12:26;;;;;;;47.05;26.65;;;;;;;;;;4973101;28;20034;-68
2021/10/17 00:14:52;;;;;;;46.90;26.25;;;;;;;;;;4973076;28;20038;-68
2021/10/17 00:17:18;;;;;;;41.97;25.55;;;;;;;;;;4972876;28;20031;-68
2021/10/17 00:19:44;;;;;;;46.60;25.75;;;;;;;;;;4972819;28;20031;-66
2021/10/17 00:22:10;;;;;;;43.88;25.63;;;;;;;;;;4972954;28;20490;-68
2021/10/17 00:24:36;;;;;;;40.22;24.92;;;;;;;;;;4973083;28;20035;-68
2021/10/17 00:27:02;;;;;;;43.33;25.23;;;;;;;;;;4973012;28;20033;-68
2021/10/17 00:29:28;;;;;;;42.25;24.67;;;;;;;;;;4972873;28;20497;-68
2021/10/17 00:31:55;;;;;;;41.33;24.85;;;;;;;;;;4972364;28;20161;-68
2021/10/17 00:34:21;;;;;;;43.47;24.85;;;;;;;;;;4972651;28;20441;-68
2021/10/17 00:36:48;;;;;;;44.38;24.17;;;;;;;;;;4972549;28;20114;-67
2021/10/17 00:39:14;;;;;;;40.38;23.83;;;;;;;;;;4971997;28;20091;-68
2021/10/17 00:41:40;;;;;;;43.30;24.33;;;;;;;;;;4972386;28;20023;-67
2021/10/17 00:44:06;;;;;;;43.30;23.80;;;;;;;;;;4972058;28;20061;-65
2021/10/17 00:46:32;;;;;;;45.20;25.02;;;;;;;;;;4972611;28;20027;-64
2021/10/17 00:48:58;;;;;;;42.42;25.63;;;;;;;;;;4972695;28;20027;-67
2021/10/17 00:51:25;;;;;;;46.45;24.83;;;;;;;;;;4972501;28;20030;-66
2021/10/17 00:53:51;;;;;;;41.92;24.77;;;;;;;;;;4972504;28;20391;-66
2021/10/17 00:56:19;;;;;;;42.20;25.25;;;;;;;;;;4972478;28;20031;-66
2021/10/17 00:58:45;;;;;;;44.13;25.38;;;;;;;;;;4972096;28;20415;-67
2021/10/17 01:01:11;;;;;;;45.17;26.83;;;;;;;;;;4972211;28;20451;-67
2021/10/17 01:03:37;;;;;;;48.85;26.70;;;;;;;;;;4972325;28;20490;-67
2021/10/17 01:06:04;;;;;;;42.30;26.33;;;;;;;;;;4971993;28;20391;-67
2021/10/17 01:08:30;;;;;;;44.03;25.38;;;;;;;;;;4972181;28;20490;-67
2021/10/17 01:10:57;;;;;;;43.42;26.38;;;;;;;;;;4970808;28;20394;-68
2021/10/17 01:13:24;;;;;;;47.55;26.30;;;;;;;;;;4972293;28;20122;-67
2021/10/17 01:15:54;;;;;;;47.08;25.73;;;;;;;;;;4972357;28;20031;-66
2021/10/17 01:18:21;;;;;;;48.95;25.92;;;;;;;;;;4972491;28;20074;-67
2021/10/17 01:20:47;;;;;;;45.58;25.85;;;;;;;;;;4972117;28;20419;-67
2021/10/17 01:23:13;;;;;;;46.63;26.13;;;;;;;;;;4971938;28;20042;-67
2021/10/17 01:25:39;;;;;;;47.83;26.85;;;;;;;;;;4972129;28;20027;-66
2021/10/17 01:28:05;;;;;;;46.10;26.15;;;;;;;;;;4972280;28;20033;-66
2021/10/17 01:30:32;;;;;;;44.13;26.23;;;;;;;;;;4972034;28;20035;-67
2021/10/17 01:32:58;;;;;;;47.65;25.92;;;;;;;;;;4971838;28;20085;-68
2021/10/17 01:35:25;;;;;;;45.65;26.60;;;;;;;;;;4972107;28;20023;-67
2021/10/17 01:37:51;;;;;;;46.05;26.40;;;;;;;;;;4972070;28;20033;-67
2021/10/17 01:40:17;;;;;;;45.95;26.27;;;;;;;;;;4972753;28;20034;-67
2021/10/17 01:42:43;;;;;;;45.00;26.10;;;;;;;;;;4971679;28;20035;-67
2021/10/17 01:45:09;;;;;;;44.60;25.20;;;;;;;;;;4972071;28;20498;-70
2021/10/17 01:47:36;;;;;;;46.88;26.30;;;;;;;;;;4971768;28;20034;-68
2021/10/17 01:50:02;;;;;;;46.08;26.13;;;;;;;;;;4972125;28;20037;-68
2021/10/17 01:52:28;;;;;;;46.88;25.77;;;;;;;;;;4974855;28;20062;-68
2021/10/17 01:54:54;;;;;;;43.85;25.98;;;;;;;;;;4975963;28;20435;-67
2021/10/17 01:57:20;;;;;;;41.97;24.95;;;;;;;;;;4975824;28;20054;-67
2021/10/17 01:59:46;;;;;;;42.00;25.45;;;;;;;;;;4975542;28;20031;-67
2021/10/17 02:02:12;;;;;;;47.72;27.60;;;;;;;;;;4976465;28;20398;-67
2021/10/17 02:04:38;;;;;;;45.15;25.70;;;;;;;;;;4977052;28;20089;-67
2021/10/17 02:07:04;;;;;;;45.92;26.45;;;;;;;;;;4976049;28;20482;-67
2021/10/17 02:09:30;;;;;;;43.53;25.67;;;;;;;;;;4975275;28;20049;-67
2021/10/17 02:11:57;;;;;;;44.90;26.58;;;;;;;;;;4975303;28;20035;-67
2021/10/17 02:14:23;;;;;;;45.85;25.60;;;;;;;;;;4975412;28;20399;-67
2021/10/17 02:16:49;;;;;;;43.03;24.42;;;;;;;;;;4975243;28;20039;-66
2021/10/17 02:19:15;;;;;;;44.65;25.13;;;;;;;;;;4973879;28;20134;-67
2021/10/17 02:21:41;;;;;;;45.83;25.75;;;;;;;;;;4975192;28;20050;-69
2021/10/17 02:24:10;;;;;;;41.15;25.08;;;;;;;;;;4975018;28;20034;-67
2021/10/17 02:26:37;;;;;;;39.15;24.40;;;;;;;;;;4974964;28;20022;-67
2021/10/17 02:29:03;;;;;;;42.58;25.00;;;;;;;;;;4974963;28;20034;-67
2021/10/17 02:31:29;;;;;;;42.90;25.15;;;;;;;;;;4974731;28;20023;-67
2021/10/17 02:33:55;;;;;;;42.55;24.67;;;;;;;;;;4974902;28;20027;-67
2021/10/17 02:36:21;;;;;;;45.35;25.73;;;;;;;;;;4975017;28;20508;-67
2021/10/17 02:38:47;;;;;;;44.30;27.00;;;;;;;;;;4974666;28;20038;-67
2021/10/17 02:41:13;;;;;;;41.03;24.20;;;;;;;;;;4974794;28;20467;-67
2021/10/17 02:43:39;;;;;;;42.42;24.38;;;;;;;;;;4973387;28;20066;-67
2021/10/17 02:46:05;;;;;;;45.35;25.10;;;;;;;;;;4974714;28;20023;-67
2021/10/17 02:48:32;;;;;;;45.38;26.17;;;;;;;;;;4974386;28;20042;-66
2021/10/17 02:50:58;;;;;;;50.70;29.50;;;;;;;;;;4974406;28;20031;-66
2021/10/17 02:53:24;;;;;;;40.80;25.15;;;;;;;;;;4974280;28;20134;-67
2021/10/17 02:55:50;;;;;;;44.45;24.92;;;;;;;;;;4974535;28;20519;-67
2021/10/17 02:58:16;;;;;;;45.13;24.48;;;;;;;;;;4974336;28;20041;-67
2021/10/17 03:00:42;;;;;;;39.00;24.20;;;;;;;;;;4974529;28;20070;-67
2021/10/17 03:03:08;;;;;;;38.90;24.15;;;;;;;;;;4973469;28;20031;-67
2021/10/17 03:05:34;;;;;;;39.80;24.20;;;;;;;;;;4974598;28;20105;-67
2021/10/17 03:08:00;;;;;;;42.33;24.75;;;;;;;;;;4974150;28;20035;-67
2021/10/17 03:10:26;;;;;;;43.22;24.48;;;;;;;;;;4974264;28;20041;-66
2021/10/17 03:12:52;;;;;;;42.50;24.00;;;;;;;;;;4974154;28;20065;-66
2021/10/17 03:15:19;;;;;;;40.70;23.90;;;;;;;;;;4973931;28;20059;-67
2021/10/17 03:17:45;;;;;;;43.78;24.75;;;;;;;;;;4973522;28;20026;-67
2021/10/17 03:20:11;;;;;;;53.92;26.25;;;;;;;;;;4974146;28;20518;-67
2021/10/17 03:22:37;;;;;;;43.22;24.25;;;;;;;;;;4974172;28;20126;-67
2021/10/17 03:25:04;;;;;;;43.58;24.95;;;;;;;;;;4973970;28;20038;-66
2021/10/17 03:27:30;;;;;;;43.05;25.05;;;;;;;;;;4974156;28;20030;-66
2021/10/17 03:29:56;;;;;;;44.15;24.02;;;;;;;;;;4973995;28;20023;-66
2021/10/17 03:32:22;;;;;;;40.70;23.10;;;;;;;;;;4973373;28;20035;-67
2021/10/17 03:34:48;;;;;;;39.50;23.92;;;;;;;;;;4973892;28;20035;-67
2021/10/17 03:37:14;;;;;;;41.00;24.00;;;;;;;;;;4973749;28;20026;-67
2021/10/17 03:39:41;;;;;;;43.15;23.23;;;;;;;;;;4973696;28;20494;-67
2021/10/17 03:42:07;;;;;;;43.47;24.08;;;;;;;;;;4973385;28;20030;-66
2021/10/17 03:44:33;;;;;;;38.88;23.08;;;;;;;;;;4973138;28;20130;-66
2021/10/17 03:46:59;;;;;;;39.30;23.48;;;;;;;;;;4973586;28;20018;-66
2021/10/17 03:49:25;;;;;;;42.67;23.77;;;;;;;;;;4973505;28;20034;-66
2021/10/17 03:51:51;;;;;;;41.97;24.30;;;;;;;;;;4973515;28;20023;-68
2021/10/17 03:54:17;;;;;;;43.03;23.80;;;;;;;;;;4973499;28;20026;-66
2021/10/17 03:56:43;;;;;;;43.33;23.88;;;;;;;;;;4973516;28;20027;-67
2021/10/17 03:59:09;;;;;;;36.97;23.23;;;;;;;;;;4973415;28;20436;-66
2021/10/17 04:01:35;;;;;;;38.63;23.40;;;;;;;;;;4973279;28;20054;-66
2021/10/17 04:04:01;;;;;;;37.92;22.85;;;;;;;;;;4972888;28;20034;-68
2021/10/17 04:06:27;;;;;;;41.33;23.30;;;;;;;;;;4973089;28;20069;-68
2021/10/17 04:08:53;;;;;;;37.85;23.23;;;;;;;;;;4973675;28;20031;-67
2021/10/17 04:11:19;;;;;;;42.53;23.73;;;;;;;;;;4973118;28;20062;-67
2021/10/17 04:13:45;;;;;;;44.55;24.42;;;;;;;;;;4972353;28;20495;-67
2021/10/17 04:16:11;;;;;;;38.17;22.50;;;;;;;;;;4973009;28;20034;-67
2021/10/17 04:18:38;;;;;;;37.28;23.30;;;;;;;;;;4972760;28;20077;-67
2021/10/17 04:21:04;;;;;;;41.45;22.73;;;;;;;;;;4973076;28;20026;-67
2021/10/17 04:23:30;;;;;;;42.45;23.08;;;;;;;;;;4972986;28;20181;-67
2021/10/17 04:25:56;;;;;;;40.75;23.25;;;;;;;;;;4972858;28;20426;-67
2021/10/17 04:28:22;;;;;;;45.35;24.95;;;;;;;;;;4972901;28;20049;-67
2021/10/17 04:30:48;;;;;;;46.67;24.42;;;;;;;;;;4972913;28;20135;-67
2021/10/17 04:33:14;;;;;;;42.80;24.23;;;;;;;;;;4972585;28;20023;-66
2021/10/17 04:35:40;;;;;;;41.35;23.30;;;;;;;;;;4972800;28;20486;-66
2021/10/17 04:38:07;;;;;;;52.38;27.30;;;;;;;;;;4972830;28;20038;-67
2021/10/17 04:40:35;;;;;;;45.70;24.33;;;;;;;;;;4972460;28;20541;-67
2021/10/17 04:43:01;;;;;;;40.40;24.58;;;;;;;;;;4972074;28;20494;-67
2021/10/17 04:45:27;;;;;;;45.22;23.15;;;;;;;;;;4972509;28;20039;-66
2021/10/17 04:47:53;;;;;;;44.10;23.60;;;;;;;;;;4972455;28;20065;-67
2021/10/17 04:50:19;;;;;;;43.08;24.40;;;;;;;;;;4972566;28;20077;-66
2021/10/17 04:52:47;;;;;;;42.75;23.17;;;;;;;;;;4972433;28;20029;-66
2021/10/17 04:55:13;;;;;;;45.97;24.50;;;;;;;;;;4971149;28;20048;-67
2021/10/17 04:57:40;;;;;;;40.30;22.83;;;;;;;;;;4972152;28;20461;-66
2021/10/17 05:00:07;;;;;;;39.78;22.08;;;;;;;;;;4972342;28;20034;-66
2021/10/17 05:02:33;;;;;;;40.85;22.52;;;;;;;;;;4970867;28;20062;-68
2021/10/17 05:04:59;;;;;;;44.70;23.35;;;;;;;;;;4972406;28;20031;-67
2021/10/17 05:07:25;;;;;;;43.50;23.83;;;;;;;;;;4972240;28;20019;-68
2021/10/17 05:09:51;;;;;;;42.58;24.58;;;;;;;;;;4972218;28;20038;-68
2021/10/17 05:12:17;;;;;;;40.55;23.88;;;;;;;;;;4972234;28;20030;-67
2021/10/17 05:14:43;;;;;;;43.22;24.25;;;;;;;;;;4972404;28;20490;-67
2021/10/17 05:17:09;;;;;;;42.45;24.13;;;;;;;;;;4972378;28;20084;-67
2021/10/17 05:19:35;;;;;;;38.50;23.35;;;;;;;;;;4971979;28;20030;-67
2021/10/17 05:22:01;;;;;;;44.40;24.73;;;;;;;;;;4972153;28;20431;-67
2021/10/17 05:24:27;;;;;;;45.83;25.67;;;;;;;;;;4971975;28;20066;-67
2021/10/17 05:26:53;;;;;;;43.67;24.08;;;;;;;;;;4976008;28;20023;-66
2021/10/17 05:29:19;;;;;;;45.55;25.42;;;;;;;;;;4976166;28;20030;-66
2021/10/17 05:31:45;;;;;;;44.42;23.63;;;;;;;;;;4976013;28;20027;-67
2021/10/17 05:34:11;;;;;;;42.83;25.02;;;;;;;;;;4975909;28;20081;-67
2021/10/17 05:36:37;;;;;;;43.85;23.83;;;;;;;;;;4976044;28;20085;-65
2021/10/17 05:39:04;;;;;;;42.33;24.92;;;;;;;;;;4975489;28;20018;-68
2021/10/17 05:41:30;;;;;;;43.88;24.75;;;;;;;;;;4975854;28;20041;-66
2021/10/17 05:43:56;;;;;;;42.00;23.58;;;;;;;;;;4974068;28;20063;-66
2021/10/17 05:46:22;;;;;;;44.15;24.77;;;;;;;;;;4974369;28;20023;-66
2021/10/17 05:48:48;;;;;;;44.97;25.23;;;;;;;;;;4974402;28;20034;-66
2021/10/17 05:51:14;;;;;;;45.00;24.52;;;;;;;;;;4974276;28;20027;-65
2021/10/17 05:53:40;;;;;;;43.47;24.98;;;;;;;;;;4974452;28;20122;-65
2021/10/17 05:56:06;;;;;;;50.20;26.27;;;;;;;;;;4974391;28;20055;-65
2021/10/17 05:58:32;;;;;;;42.60;24.70;;;;;;;;;;4974644;28;20026;-66
2021/10/17 06:00:58;;;;;;;43.67;25.27;;;;;;;;;;4974339;28;20029;-67
2021/10/17 06:03:24;;;;;;;45.28;25.60;;;;;;;;;;4973866;28;20063;-66
2021/10/17 06:05:50;;;;;;;42.15;25.05;;;;;;;;;;4973918;28;20023;-68
2021/10/17 06:08:18;;;;;;;46.70;24.50;;;;;;;;;;4985699;28;20112;-68
2021/10/17 06:10:44;;;;;;;46.85;25.58;;;;;;;;;;4994437;28;20034;-69
2021/10/17 06:13:12;;;;;;;41.22;24.60;;;;;;;;;;4994510;28;20027;-69
2021/10/17 06:15:38;;;;;;;44.60;24.90;;;;;;;;;;4994646;28;20030;-73
2021/10/17 06:18:04;;;;;;;43.15;24.58;;;;;;;;;;4977066;28;20034;-72
2021/10/17 06:20:30;;;;;;;43.47;25.13;;;;;;;;;;4977083;28;20109;-78
2021/10/17 06:22:57;;;;;;;41.28;23.15;;;;;;;;;;4978977;28;20047;-73
2021/10/17 06:25:23;;;;;;;42.92;23.85;;;;;;;;;;4974890;28;20030;-70
2021/10/17 06:27:49;;;;;;;37.65;21.45;;;;;;;;;;4974858;28;20027;-74
2021/10/17 06:30:16;;;;;;;42.05;23.05;;;;;;;;;;4974924;28;20041;-80
2021/10/17 06:32:42;;;;;;;40.13;23.02;;;;;;;;;;4957433;28;20402;-73
2021/10/17 06:35:08;;;;;;;46.45;22.98;;;;;;;;;;4974824;28;20381;-73
2021/10/17 06:37:34;;;;;;;39.72;23.63;;;;;;;;;;4973583;28;20489;-69
2021/10/17 06:40:00;;;;;;;39.40;22.38;;;;;;;;;;4974689;28;20434;-71
2021/10/17 06:42:26;;;;;;;39.47;21.42;;;;;;;;;;4974636;28;20065;-72
2021/10/17 06:44:52;;;;;;;41.25;23.00;;;;;;;;;;4973921;28;20513;-75
2021/10/17 06:47:18;;;;;;;43.70;23.38;;;;;;;;;;4974760;28;20031;-75
2021/10/17 06:49:44;;;;;;;40.97;22.17;;;;;;;;;;4974469;28;20030;-73
2021/10/17 06:52:10;;;;;;;36.08;20.63;;;;;;;;;;4974461;28;20022;-72
2021/10/17 06:54:36;;;;;;;39.28;21.70;;;;;;;;;;4974246;28;20034;-74
2021/10/17 06:57:02;;;;;;;35.55;21.50;;;;;;;;;;4974386;28;20035;-72
2021/10/17 06:59:28;;;;;;;36.92;21.77;;;;;;;;;;4974296;28;20438;-74
2021/10/17 07:01:54;;;;;;;39.90;21.88;;;;;;;;;;4974132;28;20029;-74
2021/10/17 07:04:20;;;;;;;38.15;22.17;;;;;;;;;;4973909;28;20089;-74
2021/10/17 07:06:47;;;;;;;39.03;22.05;;;;;;;;;;4957013;28;20394;-74
2021/10/17 07:09:13;;;;;;;35.95;22.20;;;;;;;;;;4973730;28;20097;-73
2021/10/17 07:11:39;;;;;;;38.60;21.50;;;;;;;;;;4973803;28;20625;-72
2021/10/17 07:14:05;;;;;;;37.67;22.00;;;;;;;;;;4974001;28;20050;-73
2021/10/17 07:16:31;;;;;;;38.78;22.42;;;;;;;;;;4956389;28;20118;-73
2021/10/17 07:18:57;;;;;;;38.67;22.33;;;;;;;;;;4973881;28;20041;-72
2021/10/17 07:21:23;;;;;;;38.38;21.80;;;;;;;;;;4973773;28;20038;-72
2021/10/17 07:23:49;;;;;;;35.25;21.48;;;;;;;;;;4973359;28;20406;-73
2021/10/17 07:26:15;;;;;;;37.83;21.50;;;;;;;;;;4973851;28;20030;-72
2021/10/17 07:28:41;;;;;;;35.38;21.52;;;;;;;;;;4973720;28;20076;-72
2021/10/17 07:31:07;;;;;;;34.10;21.15;;;;;;;;;;4973740;28;20047;-71
2021/10/17 07:33:33;;;;;;;37.45;21.42;;;;;;;;;;4973526;28;20035;-70
2021/10/17 07:36:00;;;;;;;33.58;20.65;;;;;;;;;;4973666;28;20085;-70
2021/10/17 07:38:26;;;;;;;40.85;21.80;;;;;;;;;;4973758;28;20280;-71
2021/10/17 07:40:52;;;;;;;32.30;20.15;;;;;;;;;;4973380;28;20027;-70
2021/10/17 07:43:18;;;;;;;33.88;20.35;;;;;;;;;;4973015;28;20475;-71
2021/10/17 07:45:44;;;;;;;36.92;20.38;;;;;;;;;;4955540;28;20735;-72
2021/10/17 07:48:11;;;;;;;36.58;20.48;;;;;;;;;;4973045;28;20086;-69
2021/10/17 07:50:37;;;;;;;34.53;20.55;;;;;;;;;;4973180;28;20069;-72
2021/10/17 07:53:03;;;;;;;34.75;21.05;;;;;;;;;;4973247;28;20031;-69
2021/10/17 07:55:30;;;;;;;33.30;20.85;;;;;;;;;;4973411;28;20476;-69
2021/10/17 07:57:56;;;;;;;38.42;22.58;;;;;;;;;;4973069;28;20042;-70
2021/10/17 08:00:23;;;;;;;33.35;20.95;;;;;;;;;;4973051;28;20022;-72
2021/10/17 08:02:50;;;;;;;37.40;22.80;;;;;;;;;;4973185;28;20035;-71
2021/10/17 08:05:16;;;;;;;36.05;22.17;;;;;;;;;;4972817;28;20081;-72
2021/10/17 08:07:42;;;;;;;35.75;21.63;;;;;;;;;;4972737;28;20597;-70
2021/10/17 08:10:09;;;;;;;34.33;22.00;;;;;;;;;;4972678;28;20026;-70
2021/10/17 08:12:35;;;;;;;37.17;21.52;;;;;;;;;;4972618;28;20405;-71
2021/10/17 08:15:01;;;;;;;40.47;21.88;;;;;;;;;;4972766;28;20073;-72
2021/10/17 08:17:27;;;;;;;39.25;22.42;;;;;;;;;;4972646;28;20053;-72
2021/10/17 08:19:53;;;;;;;36.53;21.85;;;;;;;;;;4972610;28;20034;-72
2021/10/17 08:22:20;;;;;;;34.25;20.65;;;;;;;;;;4972550;28;20505;-73
2021/10/17 08:24:47;;;;;;;36.17;21.98;;;;;;;;;;4972701;28;20058;-71
2021/10/17 08:27:13;;;;;;;37.75;22.02;;;;;;;;;;4972696;28;20065;-72
2021/10/17 08:29:39;;;;;;;33.40;20.75;;;;;;;;;;4972714;28;20035;-71
2021/10/17 08:32:05;;;;;;;34.13;20.80;;;;;;;;;;4972453;28;20114;-70
2021/10/17 08:34:31;;;;;;;33.97;20.77;;;;;;;;;;4972127;28;20069;-70
2021/10/17 08:36:57;;;;;;;37.08;21.15;;;;;;;;;;4972086;28;20037;-71
2021/10/17 08:39:23;;;;;;;36.80;21.20;;;;;;;;;;4972020;28;20035;-71
2021/10/17 08:41:49;;;;;;;32.83;19.48;;;;;;;;;;4972220;28;20041;-74
2021/10/17 08:44:16;;;;;;;31.10;18.95;;;;;;;;;;4971911;28;20069;-72
2021/10/17 08:46:43;;;;;;;33.55;19.75;;;;;;;;;;4971999;28;20057;-73
2021/10/17 08:49:10;;;;;;;37.35;21.77;;;;;;;;;;4972217;28;20490;-73
2021/10/17 08:51:36;;;;;;;38.78;21.48;;;;;;;;;;4953492;28;20391;-73
2021/10/17 08:54:03;;;;;;;38.70;20.92;;;;;;;;;;4972135;28;20434;-73
2021/10/17 08:56:30;;;;;;;31.42;19.95;;;;;;;;;;4972461;28;20014;-70
2021/10/17 08:58:56;;;;;;;34.70;21.52;;;;;;;;;;4971516;28;20132;-73
2021/10/17 09:01:22;;;;;;;35.40;21.10;;;;;;;;;;4971418;28;20022;-72
2021/10/17 09:03:53;;;;;;;30.70;19.73;;;;;;;;;;4971624;28;20121;-71
2021/10/17 09:06:20;;;;;;;34.83;21.58;;;;;;;;;;4971882;28;20034;-73
2021/10/17 09:08:47;;;;;;;37.78;21.38;;;;;;;;;;4971828;28;20027;-70
2021/10/17 09:11:13;;;;;;;30.00;20.30;;;;;;;;;;4971913;28;20086;-71
2021/10/17 09:14:01;;;;;;;37.72;20.40;;;;;;;;;;4971819;28;20049;-72
2021/10/17 09:16:28;;;;;;;32.78;20.73;;;;;;;;;;4971962;28;20038;-72
2021/10/17 09:19:10;;;;;;;33.25;21.38;;;;;;;;;;4971625;28;20489;-71
2021/10/17 09:21:36;;;;;;;;;;;;;;;;;;4972555;28;20065;-70
2021/10/17 09:24:03;;;;;;;34.38;20.90;;;;;;;;;;4971615;28;20421;-73
2021/10/17 09:26:29;;;;;;;31.38;19.33;;;;;;;;;;4971752;28;20058;-72
2021/10/17 09:28:55;;;;;;;31.17;19.90;;;;;;;;;;4971899;28;20587;-72
2021/10/17 09:31:21;;;;;;;33.42;20.13;;;;;;;;;;4971881;28;20534;-73
2021/10/17 09:33:49;;;;;;;33.45;21.00;;;;;;;;;;4971589;28;20161;-73
2021/10/17 09:36:23;;;;;;;32.53;20.15;;;;;;;;;;4971568;28;20027;-71
2021/10/17 09:38:53;;;;;;;32.75;19.77;;;;;;;;;;4971827;28;20508;-70
2021/10/17 09:41:37;;;;;;;32.20;20.40;;;;;;;;;;4971617;28;20106;-72
2021/10/17 09:44:03;;;;;;;39.90;23.38;;;;;;;;;;4971106;28;20059;-72
2021/10/17 09:46:30;;;;;;;33.33;19.92;;;;;;;;;;4971427;28;20026;-72
2021/10/17 09:48:56;;;;;;;32.95;19.10;;;;;;;;;;4971370;28;20028;-72
2021/10/17 09:51:25;;;;;;;30.90;18.50;;;;;;;;;;4971390;28;20341;-72
2021/10/17 09:54:01;;;;;;;34.08;19.88;;;;;;;;;;4971354;28;20390;-72
2021/10/17 09:56:31;;;;;;;33.03;18.70;;;;;;;;;;4971621;28;20027;-72
2021/10/17 09:58:58;;;;;;;32.97;19.88;;;;;;;;;;4971572;28;20102;-72
2021/10/17 10:01:25;;;;;;;32.75;19.92;;;;;;;;;;4971314;28;20026;-71
2021/10/17 10:03:55;;;;;;;29.60;18.58;;;;;;;;;;4971355;28;20105;-71
2021/10/17 10:06:21;;;;;;;29.50;17.25;;;;;;;;;;4971381;28;20101;-72
2021/10/17 10:08:49;;;;;;;28.60;16.77;;;;;;;;;;4971245;28;20494;-70
2021/10/17 10:11:20;;;;;;;26.92;16.52;;;;;;;;;;4971286;28;20541;-71
2021/10/17 10:13:47;;;;;;;28.30;18.08;;;;;;;;;;4974732;28;20039;-73
2021/10/17 10:16:13;;;;;;;23.63;14.55;;;;;;;;;;4974946;28;20125;-72
2021/10/17 10:18:40;;;;;;;26.60;15.60;;;;;;;;;;4974774;28;20479;-71
2021/10/17 10:21:06;;;;;;;28.35;17.23;;;;;;;;;;4974728;28;20050;-71
2021/10/17 10:23:34;;;;;;;31.02;18.00;;;;;;;;;;4974797;28;20042;-71
2021/10/17 10:26:00;;;;;;;21.73;15.05;;;;;;;;;;4974692;28;20022;-71
2021/10/17 10:28:27;;;;;;;23.77;16.00;;;;;;;;;;4974616;28;20027;-73
2021/10/17 10:30:53;;;;;;;20.73;12.82;;;;;;;;;;4974495;28;20034;-70
2021/10/17 10:33:22;;;;;;;25.63;16.20;;;;;;;;;;4974404;28;20050;-71
2021/10/17 10:36:00;;;;;;;31.23;17.45;;;;;;;;;;4974479;28;20035;-73
2021/10/17 10:38:49;;;;;;;29.00;17.63;;;;;;;;;;4974552;28;20506;-73
2021/10/17 10:41:16;;;;;;;27.40;17.17;;;;;;;;;;4974395;28;20486;-70
2021/10/17 10:43:42;;;;;;;27.80;17.70;;;;;;;;;;4973926;28;20058;-69
2021/10/17 10:46:08;;;;;;;28.13;16.40;;;;;;;;;;4974594;28;20056;-72
2021/10/17 10:48:47;;;;;;;25.65;15.10;;;;;;;;;;4974134;28;20031;-71
2021/10/17 10:51:32;;;;;;;23.20;13.68;;;;;;;;;;4974628;28;20042;-72
2021/10/17 10:53:58;;;;;;;29.63;16.38;;;;;;;;;;4974077;28;20033;-72
2021/10/17 10:56:44;;;;;;;25.40;16.23;;;;;;;;;;4974405;28;20034;-72
2021/10/17 10:59:11;;;;;;;31.80;17.70;;;;;;;;;;4974175;28;20031;-72
2021/10/17 11:01:52;;;;;;;37.72;19.98;;;;;;;;;;4974008;28;20078;-73
2021/10/17 11:04:36;;;;;;;33.80;19.70;;;;;;;;;;4973550;28;20035;-72
2021/10/17 11:07:17;;;;;;;37.92;21.08;;;;;;;;;;4973525;28;20030;-71
2021/10/17 11:09:44;;;;;;;33.97;20.10;;;;;;;;;;4973710;28;20023;-72
2021/10/17 11:12:10;;;;;;;33.72;20.30;;;;;;;;;;4973891;28;20493;-70
2021/10/17 11:14:36;;;;;;;32.42;19.45;;;;;;;;;;4973900;28;20035;-72
2021/10/17 11:17:06;;;;;;;30.67;18.42;;;;;;;;;;4973369;28;20085;-72
2021/10/17 11:19:35;;;;;;;31.20;19.42;;;;;;;;;;4973655;28;20041;-70
2021/10/17 11:22:04;;;;;;;32.45;20.42;;;;;;;;;;4973688;28;20375;-73
2021/10/17 11:24:31;;;;;;;41.90;22.13;;;;;;;;;;4956063;28;20395;-72
2021/10/17 11:27:11;;;;;;;36.75;21.73;;;;;;;;;;4973772;28;20041;-73
2021/10/17 11:29:38;;;;;;;35.28;21.63;;;;;;;;;;4973380;28;20081;-71
2021/10/17 11:32:16;;;;;;;35.42;20.95;;;;;;;;;;4972669;28;20034;-72
2021/10/17 11:34:43;;;;;;;36.65;21.52;;;;;;;;;;4973328;28;20027;-69
2021/10/17 11:37:21;;;;;;;33.38;20.05;;;;;;;;;;4973161;28;20058;-72
2021/10/17 11:39:56;;;;;;;30.65;18.95;;;;;;;;;;4973190;28;20023;-74
2021/10/17 11:42:23;;;;;;;33.45;20.45;;;;;;;;;;4973108;28;20031;-70
2021/10/17 11:44:50;;;;;;;30.17;18.77;;;;;;;;;;4972665;28;20050;-71
2021/10/17 11:47:16;;;;;;;33.63;17.80;;;;;;;;;;4972949;28;20045;-68
2021/10/17 11:49:42;;;;;;;33.72;18.65;;;;;;;;;;4972563;28;20038;-74
2021/10/17 11:52:12;;;;;;;36.58;18.80;;;;;;;;;;4972853;28;20610;-70
2021/10/17 11:54:42;;;;;;;22.63;13.98;;;;;;;;;;4972833;28;20030;-72
2021/10/17 11:57:08;;;;;;;22.00;13.43;;;;;;;;;;4973013;28;20037;-73
2021/10/17 11:59:34;;;;;;;22.40;13.80;;;;;;;;;;4973203;28;20039;-74
2021/10/17 12:02:00;;;;;;;23.67;14.85;;;;;;;;;;4972574;28;20487;-71
2021/10/17 12:04:42;;;;;;;28.35;15.77;;;;;;;;;;4954898;28;20053;-72
2021/10/17 12:07:08;;;;;;;20.75;11.75;;;;;;;;;;4972525;28;20019;-74
2021/10/17 12:09:34;;;;;;;26.33;14.30;;;;;;;;;;4972615;28;20176;-70
2021/10/17 12:12:00;;;;;;;24.48;14.60;;;;;;;;;;4972553;28;20023;-73
2021/10/17 12:14:27;;;;;;;27.88;15.90;;;;;;;;;;4955222;28;20465;-72
2021/10/17 12:16:56;;;;;;;21.50;13.90;;;;;;;;;;4972465;28;20110;-72
2021/10/17 12:19:26;;;;;;;21.42;12.57;;;;;;;;;;4972739;28;20065;-72
2021/10/17 12:21:52;;;;;;;17.08;11.23;;;;;;;;;;4972158;28;20026;-72
2021/10/17 12:24:19;;;;;;;17.48;12.05;;;;;;;;;;4972472;28;20038;-72
2021/10/17 12:26:50;;;;;;;18.23;11.27;;;;;;;;;;4972315;28;20022;-71
2021/10/17 12:29:17;;;;;;;19.50;12.73;;;;;;;;;;4954834;28;20368;-73
2021/10/17 12:31:52;;;;;;;20.40;12.10;;;;;;;;;;4972264;28;20027;-71
2021/10/17 12:34:35;;;;;;;22.02;13.50;;;;;;;;;;4971813;28;20023;-71
2021/10/17 12:37:02;;;;;;;21.23;14.30;;;;;;;;;;4971837;28;20074;-74
2021/10/17 12:39:28;;;;;;;19.80;13.60;;;;;;;;;;4971761;28;20030;-74
2021/10/17 12:42:01;;;;;;;21.75;13.90;;;;;;;;;;4971797;28;20035;-74
2021/10/17 12:44:27;;;;;;;22.05;13.30;;;;;;;;;;4954252;28;20462;-73
2021/10/17 12:47:06;;;;;;;21.70;14.02;;;;;;;;;;4972233;28;20027;-72
2021/10/17 12:49:39;;;;;;;22.98;14.07;;;;;;;;;;4972090;28;20048;-74
2021/10/17 12:52:09;;;;;;;20.70;13.15;;;;;;;;;;4971794;28;20494;-74
2021/10/17 12:54:37;;;;;;;19.60;12.65;;;;;;;;;;4972137;28;20054;-73
2021/10/17 12:57:05;;;;;;;22.73;13.65;;;;;;;;;;4972371;28;20058;-70
2021/10/17 12:59:33;;;;;;;22.55;13.10;;;;;;;;;;4972039;28;20038;-71
2021/10/17 13:01:59;;;;;;;20.17;13.02;;;;;;;;;;4972365;28;20159;-73
2021/10/17 13:04:40;;;;;;;23.50;13.07;;;;;;;;;;4971964;28;20789;-73
2021/10/17 13:07:06;;;;;;;20.42;13.98;;;;;;;;;;4972020;28;20030;-72
2021/10/17 13:09:43;;;;;;;21.80;14.20;;;;;;;;;;4972016;28;20129;-73
2021/10/17 13:12:28;;;;;;;22.48;13.55;;;;;;;;;;4972061;28;20117;-72
2021/10/17 13:15:05;;;;;;;25.75;16.55;;;;;;;;;;4971809;28;20027;-71
2021/10/17 13:17:32;;;;;;;20.08;13.20;;;;;;;;;;4971977;28;20071;-70
2021/10/17 13:19:58;;;;;;;21.58;13.23;;;;;;;;;;4971951;28;20142;-73
2021/10/17 13:22:24;;;;;;;20.42;12.80;;;;;;;;;;4971284;28;20023;-72
2021/10/17 13:24:50;;;;;;;20.27;12.30;;;;;;;;;;4971897;28;20087;-70
2021/10/17 13:27:16;;;;;;;19.40;12.43;;;;;;;;;;4971978;28;20045;-71
2021/10/17 13:29:43;;;;;;;18.00;12.38;;;;;;;;;;4971834;28;20027;-72
2021/10/17 13:32:09;;;;;;;20.95;13.05;;;;;;;;;;4971664;28;20034;-69
2021/10/17 13:34:35;;;;;;;20.08;13.10;;;;;;;;;;4971754;28;20030;-72
2021/10/17 13:37:01;;;;;;;19.02;11.93;;;;;;;;;;4954145;28;20435;-72
2021/10/17 13:39:27;;;;;;;19.25;13.10;;;;;;;;;;4971484;28;20317;-70
2021/10/17 13:41:53;;;;;;;18.98;13.05;;;;;;;;;;4971665;28;20094;-72
2021/10/17 13:44:19;;;;;;;47.15;24.92;;;;;;;;;;4971199;28;20473;-72
2021/10/17 13:46:45;;;;;;;44.13;26.00;;;;;;;;;;4973426;28;20031;-71
2021/10/17 13:49:11;;;;;;;26.48;15.98;;;;;;;;;;4974810;28;20479;-72
2021/10/17 13:51:37;;;;;;;23.63;15.25;;;;;;;;;;4975172;28;20467;-71
2021/10/17 13:54:03;;;;;;;22.40;14.85;;;;;;;;;;4975157;28;20471;-73
2021/10/17 13:56:29;;;;;;;23.48;15.02;;;;;;;;;;4975102;28;20030;-70
2021/10/17 13:58:55;;;;;;;20.92;13.27;;;;;;;;;;4974972;28;20030;-73
2021/10/17 14:01:21;;;;;;;21.35;13.20;;;;;;;;;;4975012;28;20081;-72
2021/10/17 14:03:47;;;;;;;18.90;12.73;;;;;;;;;;4974747;28;20038;-72
2021/10/17 14:06:13;;;;;;;20.08;12.13;;;;;;;;;;4974496;28;20403;-70
2021/10/17 14:08:39;;;;;;;17.95;11.43;;;;;;;;;;4974803;28;20093;-71
2021/10/17 14:11:08;;;;;;;17.95;11.85;;;;;;;;;;4974617;28;20500;-70
2021/10/17 14:13:34;;;;;;;17.88;11.95;;;;;;;;;;4974660;28;20078;-74
2021/10/17 14:16:00;;;;;;;17.58;11.65;;;;;;;;;;4974601;28;20038;-73
2021/10/17 14:18:26;;;;;;;18.80;11.75;;;;;;;;;;4974664;28;20030;-74